Jerseytown, Pennsylvania
Current Conditions -  °F | °C
As of 12:55 PM on Friday 28 Nov 2014 (Local Time) from KHZL Reporting Station
Overcast Overcast  
Wind Chill: 21°   Ceiling: 4000
Heat Index: 30°   Visibility: 10mi
Dew Point: 14°   Wind: 10mph
Humidity: 51%   Direction: 300°WNW
Pressure: 30.16"   Gusts: 20mph
Location:  41.0301°N, 76.4558°W
Report Text: KHZL 281755Z AUTO 30009G17KT 250V310 10SM OVC040 M01/M10 A3016 RMK AO2
Loading
Personal Weather Stations






























Interactive Weather Map New forecast layout! Learn more

10-Day Weather Forecast

Advertisements
Track Severe Weather on mobile